Time;durP1;ratioP1;P1;durP2;ratioP2;P2;SDS_P1;SDS_P2;PMS_P1;PMS_P2;Temp;Humidity;BMP_temperature;BMP_pressure;BME280_temperature;BME280_humidity;BME280_pressure;Samples;Min_cycle;Max_cycle;Signal;HPM_P1;HPM_P2
2023/12/13 01:34:09;;;;;;;15.87;8.23;;;;;;;;;;6097520;23;20218;-91
2023/12/13 01:37:15;;;;;;;15.70;8.50;;;;;;;;;;6112139;23;20223;-89
2023/12/13 01:40:20;;;;;;;16.27;8.83;;;;;;;;;;6092907;23;20169;-91
2023/12/13 01:43:25;;;;;;;16.10;8.07;;;;;;;;;;6092618;23;20165;-90
2023/12/13 01:46:31;;;;;;;15.37;8.37;;;;;;;;;;6092772;23;20177;-92
2023/12/13 01:49:37;;;;;;;14.20;8.20;;;;;;;;;;6091752;23;20595;-92
2023/12/13 01:52:42;;;;;;;15.07;8.33;;;;;;;;;;6091323;23;20197;-91
2023/12/13 01:55:48;;;;;;;18.67;9.87;;;;;;;;;;6093640;23;20243;-91
2023/12/13 01:58:53;;;;;;;19.67;9.73;;;;;;;;;;6092981;23;20613;-93
2023/12/13 02:01:59;;;;;;;15.33;8.10;;;;;;;;;;6096040;23;20178;-90
2023/12/13 02:05:07;;;;;;;17.07;8.33;;;;;;;;;;6092711;23;20246;-90
2023/12/13 02:08:12;;;;;;;14.20;7.87;;;;;;;;;;6093793;23;20178;-90
2023/12/13 02:11:17;;;;;;;17.13;8.63;;;;;;;;;;6093359;23;20242;-90
2023/12/13 02:14:25;;;;;;;15.97;8.70;;;;;;;;;;6092500;23;20170;-90
2023/12/13 02:17:30;;;;;;;14.37;8.17;;;;;;;;;;6093302;23;20181;-91
2023/12/13 02:20:37;;;;;;;15.37;7.70;;;;;;;;;;6092497;23;20174;-90
2023/12/13 02:23:44;;;;;;;13.57;7.87;;;;;;;;;;6091543;23;20629;-92
2023/12/13 02:26:50;;;;;;;13.13;7.43;;;;;;;;;;6095220;23;20154;-92
2023/12/13 02:29:55;;;;;;;15.83;8.03;;;;;;;;;;6094321;23;20169;-90
2023/12/13 02:33:00;;;;;;;14.30;7.27;;;;;;;;;;6093796;23;20733;-93
2023/12/13 02:36:06;;;;;;;17.03;6.87;;;;;;;;;;6093691;23;20174;-91
2023/12/13 02:39:12;;;;;;;12.73;6.70;;;;;;;;;;6093971;23;20621;-91
2023/12/13 02:42:18;;;;;;;14.37;7.73;;;;;;;;;;6094488;23;20214;-91
2023/12/13 02:45:23;;;;;;;15.33;7.77;;;;;;;;;;6091810;23;20174;-91
2023/12/13 02:48:28;;;;;;;12.53;6.87;;;;;;;;;;6091545;23;20185;-92
2023/12/13 02:51:34;;;;;;;13.03;7.47;;;;;;;;;;6091691;23;20629;-91
2023/12/13 02:54:40;;;;;;;13.00;7.40;;;;;;;;;;6092250;23;20174;-90
2023/12/13 02:57:45;;;;;;;14.30;7.13;;;;;;;;;;6092428;23;20178;-92
2023/12/13 03:00:50;;;;;;;12.37;7.10;;;;;;;;;;6092447;23;20174;-91
2023/12/13 03:03:55;;;;;;;12.90;7.13;;;;;;;;;;6094014;23;20170;-90
2023/12/13 03:07:01;;;;;;;12.80;6.97;;;;;;;;;;6093344;23;20174;-91
2023/12/13 03:10:08;;;;;;;11.27;6.20;;;;;;;;;;6090871;23;20178;-92
2023/12/13 03:13:13;;;;;;;14.20;6.40;;;;;;;;;;6091738;23;20200;-91
2023/12/13 03:16:18;;;;;;;11.37;6.40;;;;;;;;;;6092437;23;20182;-91
2023/12/13 03:19:24;;;;;;;11.73;6.23;;;;;;;;;;6091689;23;20165;-91
2023/12/13 03:22:29;;;;;;;13.50;6.67;;;;;;;;;;6092281;23;20166;-92
2023/12/13 03:25:35;;;;;;;12.23;6.80;;;;;;;;;;6090445;23;20177;-91
2023/12/13 03:28:40;;;;;;;12.43;6.80;;;;;;;;;;6089721;23;20161;-93
2023/12/13 03:31:45;;;;;;;13.83;6.90;;;;;;;;;;6090402;23;20158;-92
2023/12/13 03:34:50;;;;;;;14.30;7.07;;;;;;;;;;6089951;23;20216;-92
2023/12/13 03:37:55;;;;;;;11.93;6.53;;;;;;;;;;6089953;23;20170;-91
2023/12/13 03:41:02;;;;;;;11.30;6.60;;;;;;;;;;6091552;23;20203;-93
2023/12/13 03:44:07;;;;;;;10.27;5.83;;;;;;;;;;6091581;23;20173;-91
2023/12/13 03:47:12;;;;;;;14.20;6.60;;;;;;;;;;6092642;23;20169;-93
2023/12/13 03:50:17;;;;;;;12.10;6.40;;;;;;;;;;6095676;23;20621;-92
2023/12/13 03:53:22;;;;;;;12.57;6.37;;;;;;;;;;6096953;23;20211;-92
2023/12/13 03:56:29;;;;;;;14.30;6.80;;;;;;;;;;6094255;23;20165;-91
2023/12/13 03:59:34;;;;;;;13.57;7.37;;;;;;;;;;6093984;23;20283;-92
2023/12/13 04:02:40;;;;;;;13.53;6.97;;;;;;;;;;6092850;23;20183;-93
2023/12/13 04:05:45;;;;;;;14.63;7.40;;;;;;;;;;6093451;23;20229;-92
2023/12/13 04:08:51;;;;;;;16.40;7.27;;;;;;;;;;6094066;23;20154;-91
2023/12/13 04:11:57;;;;;;;12.87;6.83;;;;;;;;;;6092227;23;20673;-91
2023/12/13 04:15:02;;;;;;;13.60;7.47;;;;;;;;;;6090601;23;20177;-92
2023/12/13 04:18:07;;;;;;;20.53;9.23;;;;;;;;;;6091538;23;20181;-92
2023/12/13 04:21:12;;;;;;;13.57;7.17;;;;;;;;;;6091216;23;20162;-91
2023/12/13 04:24:18;;;;;;;12.20;6.57;;;;;;;;;;6091411;23;20178;-91
2023/12/13 04:27:24;;;;;;;15.07;7.60;;;;;;;;;;6092815;23;20224;-93
2023/12/13 04:30:30;;;;;;;13.93;7.27;;;;;;;;;;6092981;23;20177;-90
2023/12/13 04:33:35;;;;;;;19.97;8.07;;;;;;;;;;6094493;23;20209;-91
2023/12/13 04:36:40;;;;;;;14.13;6.90;;;;;;;;;;6096413;23;20173;-92
2023/12/13 04:39:45;;;;;;;15.23;7.00;;;;;;;;;;6090469;23;20178;-90
2023/12/13 04:42:51;;;;;;;16.90;7.40;;;;;;;;;;6091441;23;20198;-92
2023/12/13 04:45:56;;;;;;;14.97;7.50;;;;;;;;;;6092309;23;20169;-92
2023/12/13 04:49:02;;;;;;;13.87;7.10;;;;;;;;;;6091080;23;20169;-89
2023/12/13 04:52:07;;;;;;;15.77;7.07;;;;;;;;;;6097349;23;20170;-92
2023/12/13 04:55:12;;;;;;;13.30;6.77;;;;;;;;;;6091586;23;20704;-93
2023/12/13 04:58:19;;;;;;;10.47;6.10;;;;;;;;;;6095110;23;20149;-91
2023/12/13 05:01:24;;;;;;;13.33;6.53;;;;;;;;;;6093754;23;20272;-93
2023/12/13 05:04:30;;;;;;;17.60;8.17;;;;;;;;;;6092012;23;20177;-92
2023/12/13 05:07:35;;;;;;;11.37;6.33;;;;;;;;;;6091073;23;20170;-91
2023/12/13 05:10:43;;;;;;;11.40;6.23;;;;;;;;;;6090008;23;20169;-92
2023/12/13 05:13:49;;;;;;;12.00;6.50;;;;;;;;;;6091361;23;20181;-92
2023/12/13 05:16:55;;;;;;;14.77;7.03;;;;;;;;;;6091324;23;20169;-90
2023/12/13 05:20:00;;;;;;;15.27;6.97;;;;;;;;;;6093936;23;20605;-91
2023/12/13 05:23:08;;;;;;;11.73;6.43;;;;;;;;;;6091554;23;20210;-92
2023/12/13 05:26:13;;;;;;;15.07;6.20;;;;;;;;;;6091795;23;20165;-93
2023/12/13 05:29:21;;;;;;;14.77;7.63;;;;;;;;;;6094284;23;20179;-91
2023/12/13 05:32:26;;;;;;;14.77;6.97;;;;;;;;;;6094405;23;20233;-90
2023/12/13 05:35:31;;;;;;;14.27;6.67;;;;;;;;;;6095015;23;20318;-91
2023/12/13 05:38:36;;;;;;;12.67;7.20;;;;;;;;;;6094049;23;20663;-90
2023/12/13 05:41:41;;;;;;;11.90;6.77;;;;;;;;;;6091620;23;20206;-91
2023/12/13 05:44:48;;;;;;;15.50;7.00;;;;;;;;;;6093561;23;20157;-92
2023/12/13 05:47:53;;;;;;;11.63;6.60;;;;;;;;;;6092198;23;20181;-91
2023/12/13 05:50:58;;;;;;;14.73;7.17;;;;;;;;;;6094351;23;20174;-91
2023/12/13 05:54:04;;;;;;;13.40;7.30;;;;;;;;;;6094204;23;20665;-92
2023/12/13 05:57:10;;;;;;;12.57;6.73;;;;;;;;;;6094173;23;20226;-89
2023/12/13 06:00:19;;;;;;;14.70;7.03;;;;;;;;;;6095065;23;20186;-90
2023/12/13 06:03:25;;;;;;;15.23;7.73;;;;;;;;;;6098192;23;20249;-91
2023/12/13 06:06:30;;;;;;;14.23;7.03;;;;;;;;;;6093552;23;20165;-92
2023/12/13 06:09:35;;;;;;;12.70;7.13;;;;;;;;;;6093536;23;20221;-91
2023/12/13 06:12:40;;;;;;;15.33;7.80;;;;;;;;;;6092771;23;20174;-90
2023/12/13 06:15:47;;;;;;;14.43;7.60;;;;;;;;;;6093806;23;20169;-89
2023/12/13 06:18:52;;;;;;;19.90;8.13;;;;;;;;;;6095832;23;20217;-92
2023/12/13 06:21:58;;;;;;;15.70;8.27;;;;;;;;;;6096377;23;20674;-91
2023/12/13 06:25:04;;;;;;;17.97;8.30;;;;;;;;;;6092354;23;20308;-89
2023/12/13 06:28:09;;;;;;;17.03;8.67;;;;;;;;;;6094697;23;20174;-90
2023/12/13 06:31:16;;;;;;;16.00;8.43;;;;;;;;;;6096259;23;20227;-90
2023/12/13 06:34:22;;;;;;;16.77;8.57;;;;;;;;;;6097180;23;20198;-91
2023/12/13 06:37:28;;;;;;;16.63;8.10;;;;;;;;;;6096566;23;20261;-90
2023/12/13 06:40:33;;;;;;;17.67;8.90;;;;;;;;;;6096573;23;20173;-91
2023/12/13 06:43:38;;;;;;;15.10;8.30;;;;;;;;;;6093020;23;20169;-89
2023/12/13 06:46:45;;;;;;;14.10;7.33;;;;;;;;;;6094452;23;20162;-91
2023/12/13 06:49:50;;;;;;;15.10;8.00;;;;;;;;;;6094564;23;20173;-91
2023/12/13 06:52:55;;;;;;;15.63;8.43;;;;;;;;;;6093432;23;20194;-91
2023/12/13 06:56:00;;;;;;;18.97;8.17;;;;;;;;;;6094836;23;20193;-89
2023/12/13 06:59:05;;;;;;;18.93;9.00;;;;;;;;;;6095021;23;20190;-90
2023/12/13 07:02:12;;;;;;;19.50;8.33;;;;;;;;;;6101312;23;20203;-92
2023/12/13 07:05:19;;;;;;;17.60;8.53;;;;;;;;;;6094792;23;20246;-90
2023/12/13 07:08:24;;;;;;;17.30;7.93;;;;;;;;;;6112113;23;20218;-91
2023/12/13 07:11:30;;;;;;;18.67;8.70;;;;;;;;;;6102049;23;20241;-90
2023/12/13 07:14:35;;;;;;;18.80;8.53;;;;;;;;;;6116000;23;20197;-90
2023/12/13 07:17:43;;;;;;;17.30;8.40;;;;;;;;;;6101393;23;20191;-91
2023/12/13 07:20:49;;;;;;;17.93;8.40;;;;;;;;;;6096565;23;20174;-93
2023/12/13 07:23:57;;;;;;;19.97;8.50;;;;;;;;;;6097907;23;20174;-91
2023/12/13 07:27:02;;;;;;;18.60;9.37;;;;;;;;;;6092714;23;20230;-92
2023/12/13 07:30:09;;;;;;;20.60;8.47;;;;;;;;;;6094266;23;20555;-91
2023/12/13 07:33:16;;;;;;;19.87;9.57;;;;;;;;;;6091814;23;20218;-90
2023/12/13 07:36:22;;;;;;;21.17;9.57;;;;;;;;;;6093510;23;20178;-90
2023/12/13 07:39:36;;;;;;;19.20;8.97;;;;;;;;;;6095348;23;20504;-90
2023/12/13 07:42:45;;;;;;;19.17;8.70;;;;;;;;;;6098339;23;20630;-90
2023/12/13 07:45:52;;;;;;;21.73;9.00;;;;;;;;;;6093323;23;20174;-90
2023/12/13 07:49:03;;;;;;;17.70;8.57;;;;;;;;;;6095813;23;20215;-90
2023/12/13 07:52:08;;;;;;;14.57;7.60;;;;;;;;;;6093182;23;20170;-93
2023/12/13 07:55:18;;;;;;;19.03;8.60;;;;;;;;;;6094293;23;20246;-91
2023/12/13 07:58:23;;;;;;;17.37;7.47;;;;;;;;;;6091157;23;20181;-91
2023/12/13 08:01:29;;;;;;;15.30;7.40;;;;;;;;;;6093165;23;20243;-90
2023/12/13 14:42:35;;;;;;;21.98;11.35;;;;;;;;;;6026179;23;20202;31
2023/12/13 14:45:42;;;;;;;21.55;11.07;;;;;;;;;;5981985;23;20203;-90
2023/12/13 14:48:48;;;;;;;19.40;10.70;;;;;;;;;;5966353;23;20353;-90
2023/12/13 14:51:54;;;;;;;19.63;10.38;;;;;;;;;;5979953;23;20247;-90
2023/12/13 14:54:59;;;;;;;83.45;25.38;;;;;;;;;;5978325;23;20575;-89
2023/12/13 14:58:04;;;;;;;16.30;9.27;;;;;;;;;;5979729;23;20176;-90
2023/12/13 15:01:11;;;;;;;16.45;9.27;;;;;;;;;;5983244;23;20168;-92
2023/12/13 15:04:16;;;;;;;19.50;10.30;;;;;;;;;;5982783;23;20180;-91
2023/12/13 15:07:22;;;;;;;16.02;8.20;;;;;;;;;;5980840;23;20629;-92
2023/12/13 15:10:27;;;;;;;13.15;7.50;;;;;;;;;;5978862;23;20173;-92
2023/12/13 15:13:33;;;;;;;16.85;8.27;;;;;;;;;;5979824;24;20183;-90
2023/12/13 15:16:41;;;;;;;17.30;8.07;;;;;;;;;;5982587;23;20172;-90
2023/12/13 15:19:46;;;;;;;16.85;8.60;;;;;;;;;;5982079;23;20256;-90
2023/12/13 15:22:51;;;;;;;16.00;9.02;;;;;;;;;;5985069;23;20208;-91
2023/12/13 15:25:58;;;;;;;28.10;12.05;;;;;;;;;;5981312;23;20168;-88
2023/12/13 15:29:07;;;;;;;26.23;12.88;;;;;;;;;;5984404;23;20156;-91
2023/12/13 15:32:22;;;;;;;22.73;11.80;;;;;;;;;;5981318;23;20165;-92
2023/12/13 15:35:28;;;;;;;24.02;11.68;;;;;;;;;;5986614;23;20264;-90
2023/12/13 15:38:35;;;;;;;23.35;10.25;;;;;;;;;;5983887;23;20470;-90
2023/12/13 15:41:42;;;;;;;17.48;9.00;;;;;;;;;;5984595;23;20645;-89
2023/12/13 15:44:48;;;;;;;20.70;10.57;;;;;;;;;;5984016;23;20188;-88
2023/12/13 15:47:55;;;;;;;23.08;11.15;;;;;;;;;;5984681;24;20177;-91
2023/12/13 15:51:00;;;;;;;22.75;11.32;;;;;;;;;;5984056;23;20180;-91
2023/12/13 15:54:07;;;;;;;21.63;11.65;;;;;;;;;;5984687;23;20200;-91
2023/12/13 15:57:13;;;;;;;24.35;12.38;;;;;;;;;;5984119;23;20160;-87
2023/12/13 16:00:21;;;;;;;21.48;11.20;;;;;;;;;;5985452;23;20176;-90
2023/12/13 16:03:32;;;;;;;22.75;11.40;;;;;;;;;;5986986;23;20175;-90
2023/12/13 16:06:37;;;;;;;15.48;8.70;;;;;;;;;;5984439;23;20173;-90
2023/12/13 16:09:45;;;;;;;17.70;8.85;;;;;;;;;;5985249;23;20173;-90
2023/12/13 16:12:51;;;;;;;19.20;9.75;;;;;;;;;;5986718;23;20165;-91
2023/12/13 16:15:58;;;;;;;20.10;9.50;;;;;;;;;;5986395;23;20204;-91
2023/12/13 16:19:06;;;;;;;20.35;9.88;;;;;;;;;;5986487;23;20164;-91
2023/12/13 16:22:11;;;;;;;28.35;11.70;;;;;;;;;;5985741;23;20173;-92
2023/12/13 16:25:19;;;;;;;22.63;10.52;;;;;;;;;;5984994;23;20229;-92
2023/12/13 16:28:24;;;;;;;23.33;10.02;;;;;;;;;;5983385;23;20178;-91
2023/12/13 16:31:30;;;;;;;20.67;9.35;;;;;;;;;;5983850;23;20168;-91
2023/12/13 16:34:37;;;;;;;22.27;10.77;;;;;;;;;;5980988;23;20196;-91
2023/12/13 16:37:42;;;;;;;18.83;9.50;;;;;;;;;;5982878;23;20177;-89
2023/12/13 16:40:47;;;;;;;23.20;10.93;;;;;;;;;;5983015;23;20214;-92
2023/12/13 16:43:53;;;;;;;24.50;12.10;;;;;;;;;;5982939;23;20200;-91
2023/12/13 16:47:01;;;;;;;22.88;11.23;;;;;;;;;;5982154;23;20259;-89
2023/12/13 16:50:10;;;;;;;21.05;9.95;;;;;;;;;;5983587;23;20203;-91
2023/12/13 16:53:17;;;;;;;19.80;10.80;;;;;;;;;;5984501;23;20160;-91
2023/12/13 16:59:46;;;;;;;28.07;11.93;;;;;;;;;;5988239;23;20198;-92
2023/12/13 17:02:58;;;;;;;29.50;12.80;;;;;;;;;;5986119;23;20180;-91
2023/12/13 17:06:08;;;;;;;36.40;14.77;;;;;;;;;;5986921;23;20180;-89
2023/12/13 17:09:17;;;;;;;27.23;11.83;;;;;;;;;;5988125;23;20165;-90
2023/12/13 17:15:45;;;;;;;22.93;11.47;;;;;;;;;;5984794;24;20196;-90
2023/12/13 17:18:53;;;;;;;21.93;11.03;;;;;;;;;;5984951;23;20184;-89
2023/12/13 17:22:30;;;;;;;21.13;11.40;;;;;;;;;;5984199;23;20164;-91
2023/12/13 17:25:38;;;;;;;25.17;13.13;;;;;;;;;;5984382;23;20164;-89
2023/12/13 17:28:44;;;;;;;46.37;18.13;;;;;;;;;;5985189;23;20169;-92
2023/12/13 17:31:49;;;;;;;53.95;22.40;;;;;;;;;;5983859;23;20267;-89
2023/12/13 17:34:55;;;;;;;89.60;39.50;;;;;;;;;;5984152;24;20198;-92
2023/12/13 17:38:01;;;;;;;70.10;25.43;;;;;;;;;;5983391;23;20232;-94
2023/12/13 17:41:09;;;;;;;45.97;17.85;;;;;;;;;;5984575;23;20160;-91
2023/12/13 19:15:14;;;;;;;17.20;9.15;;;;;;;;;;6079194;23;20219;-93
2023/12/13 19:18:22;;;;;;;21.73;10.70;;;;;;;;;;6100540;23;20316;-89
2023/12/13 19:21:31;;;;;;;30.40;13.43;;;;;;;;;;6083386;23;20218;-91
2023/12/13 19:24:41;;;;;;;22.58;11.18;;;;;;;;;;6103202;23;20199;-92
2023/12/13 19:27:48;;;;;;;39.67;15.95;;;;;;;;;;6101496;23;20278;-90
2023/12/13 19:30:57;;;;;;;28.63;14.33;;;;;;;;;;6101717;23;20157;-91
2023/12/13 19:34:05;;;;;;;34.33;16.07;;;;;;;;;;6101147;23;20215;-91
2023/12/13 19:37:13;;;;;;;22.77;12.68;;;;;;;;;;6085380;23;20229;-90
2023/12/13 19:40:20;;;;;;;27.40;11.82;;;;;;;;;;6101719;23;20202;-91
2023/12/13 19:43:31;;;;;;;30.17;13.00;;;;;;;;;;6084917;23;20165;-88
2023/12/13 19:46:43;;;;;;;23.87;11.63;;;;;;;;;;6102088;23;20178;-92
2023/12/13 19:49:48;;;;;;;20.70;11.43;;;;;;;;;;6100923;23;20166;-89
2023/12/13 19:52:55;;;;;;;27.07;13.90;;;;;;;;;;6101312;23;20229;-91
2023/12/13 19:56:03;;;;;;;18.80;10.77;;;;;;;;;;6103144;23;20214;-91
2023/12/13 19:59:10;;;;;;;25.77;13.00;;;;;;;;;;6103071;23;20189;-92
2023/12/13 20:02:18;;;;;;;30.87;13.27;;;;;;;;;;6103129;23;20178;-94
2023/12/13 20:05:27;;;;;;;24.90;12.47;;;;;;;;;;6101486;23;20254;-90
2023/12/13 20:08:33;;;;;;;25.95;12.70;;;;;;;;;;6101303;23;20175;-92
2023/12/13 20:11:42;;;;;;;24.42;12.30;;;;;;;;;;6100206;23;20195;-89
2023/12/13 20:14:52;;;;;;;27.10;12.90;;;;;;;;;;6102519;23;20186;-91
2023/12/13 20:18:01;;;;;;;27.60;13.10;;;;;;;;;;6101868;23;20198;-90
2023/12/13 20:21:08;;;;;;;29.13;13.52;;;;;;;;;;6101599;23;20238;-92
2023/12/13 20:24:13;;;;;;;31.20;15.37;;;;;;;;;;6102663;23;20153;-92
2023/12/13 20:27:19;;;;;;;56.03;19.90;;;;;;;;;;6101353;23;20270;-88
2023/12/13 20:30:29;;;;;;;32.92;14.38;;;;;;;;;;6101945;23;20170;-90
2023/12/13 20:33:37;;;;;;;37.40;18.38;;;;;;;;;;6100680;23;20178;-94
2023/12/13 20:36:56;;;;;;;31.73;15.10;;;;;;;;;;6101032;23;20197;-92
2023/12/13 20:40:11;;;;;;;32.17;14.90;;;;;;;;;;6103579;23;20198;-90
2023/12/13 20:43:19;;;;;;;26.57;14.10;;;;;;;;;;6099909;23;20161;-93
2023/12/13 20:46:25;;;;;;;25.17;12.63;;;;;;;;;;6102020;23;20166;-91
2023/12/13 20:49:34;;;;;;;26.10;13.37;;;;;;;;;;6100953;23;20173;-92
2023/12/13 20:52:42;;;;;;;26.67;13.87;;;;;;;;;;6084200;23;20150;-91
2023/12/13 20:55:51;;;;;;;21.88;12.48;;;;;;;;;;6082573;23;20201;-91
2023/12/13 23:02:10;;;;;;;21.23;11.03;;;;;;;;;;6065614;23;20234;-90
2023/12/13 23:05:15;;;;;;;25.40;11.73;;;;;;;;;;6097775;23;20169;-91
2023/12/13 23:08:22;;;;;;;23.77;11.40;;;;;;;;;;6073096;23;20568;-90
2023/12/13 23:11:30;;;;;;;21.00;10.67;;;;;;;;;;6100137;23;20211;-91
2023/12/13 23:14:35;;;;;;;20.10;10.50;;;;;;;;;;6115873;23;20222;-89
2023/12/13 23:17:42;;;;;;;21.77;9.27;;;;;;;;;;6096988;23;20255;-91
2023/12/13 23:20:48;;;;;;;20.27;9.90;;;;;;;;;;6115431;23;20191;-92
2023/12/13 23:23:54;;;;;;;22.00;9.57;;;;;;;;;;6097584;23;20174;-89
2023/12/13 23:26:59;;;;;;;19.43;9.87;;;;;;;;;;6098207;23;20157;-91
2023/12/13 23:30:05;;;;;;;26.60;9.73;;;;;;;;;;6095283;23;20182;-89
2023/12/13 23:33:11;;;;;;;19.00;9.33;;;;;;;;;;6095795;23;20479;-91
2023/12/13 23:36:18;;;;;;;19.33;9.17;;;;;;;;;;6096589;23;20657;-92
2023/12/13 23:39:24;;;;;;;17.80;8.83;;;;;;;;;;6112016;23;20246;-88
2023/12/13 23:42:30;;;;;;;19.77;9.40;;;;;;;;;;6096599;23;20604;-90
2023/12/13 23:45:36;;;;;;;19.63;8.97;;;;;;;;;;6096623;23;20169;-90
2023/12/13 23:48:44;;;;;;;18.70;8.87;;;;;;;;;;6096507;23;20174;-89
2023/12/13 23:51:49;;;;;;;18.63;9.43;;;;;;;;;;6097445;23;20178;-90
2023/12/13 23:58:16;;;;;;;15.67;8.23;;;;;;;;;;6095857;23;20290;-91
